Time;durP1;ratioP1;P1;durP2;ratioP2;P2;SDS_P1;SDS_P2;PMS_P1;PMS_P2;Temp;Humidity;BMP_temperature;BMP_pressure;BME280_temperature;BME280_humidity;BME280_pressure;Samples;Min_cycle;Max_cycle;Signal;HPM_P1;HPM_P2
2021/08/23 00:00:59;;;;;;;48.00;23.23;;;17.70;99.90;;;;;;5054250;28;20307;-76
2021/08/23 00:03:25;;;;;;;49.47;25.33;;;17.70;99.90;;;;;;5054525;28;20200;-76
2021/08/23 00:05:52;;;;;;;45.80;24.60;;;17.70;99.90;;;;;;5053452;28;20279;-75
2021/08/23 00:08:19;;;;;;;59.07;25.37;;;17.60;99.90;;;;;;5053414;28;20279;-78
2021/08/23 00:10:46;;;;;;;49.67;23.93;;;17.70;99.90;;;;;;5056872;28;20640;-74
2021/08/23 00:13:13;;;;;;;44.67;23.37;;;17.60;99.90;;;;;;5054988;28;20279;-77
2021/08/23 00:15:41;;;;;;;58.03;24.77;;;17.60;99.90;;;;;;5056189;28;20202;-76
2021/08/23 00:18:09;;;;;;;45.77;23.70;;;17.60;99.90;;;;;;5056554;28;20294;-76
2021/08/23 00:20:51;;;;;;;51.30;22.90;;;17.60;99.90;;;;;;5055641;28;20224;-77
2021/08/23 00:23:20;;;;;;;55.03;23.93;;;17.50;99.90;;;;;;5054335;28;20547;-77
2021/08/23 00:25:48;;;;;;;49.23;23.13;;;17.60;99.90;;;;;;5054051;28;20196;-78
2021/08/23 00:28:15;;;;;;;56.10;24.37;;;17.50;99.90;;;;;;5054635;28;20283;-76
2021/08/23 00:30:42;;;;;;;46.03;24.00;;;17.50;99.90;;;;;;5053089;28;20283;-78
2021/08/23 00:33:10;;;;;;;54.37;24.07;;;17.60;99.90;;;;;;5052983;28;20196;-78
2021/08/23 00:35:37;;;;;;;45.73;23.73;;;17.60;99.90;;;;;;5054984;28;20204;-76
2021/08/23 00:38:04;;;;;;;53.83;24.37;;;17.60;99.90;;;;;;5056699;28;20283;-76
2021/08/23 00:40:31;;;;;;;44.80;23.10;;;17.60;99.90;;;;;;5056998;28;20307;-77
2021/08/23 00:42:58;;;;;;;50.73;23.47;;;17.60;99.90;;;;;;5054862;28;20210;-76
2021/08/23 00:45:25;;;;;;;56.70;24.27;;;17.50;99.90;;;;;;5053438;28;20249;-75
2021/08/23 00:47:52;;;;;;;48.40;24.07;;;17.40;99.90;;;;;;5052364;28;20279;-76
2021/08/23 00:50:21;;;;;;;47.17;25.03;;;17.40;99.90;;;;;;5052114;28;20291;-75
2021/08/23 00:52:48;;;;;;;49.73;25.40;;;17.40;99.90;;;;;;5054684;28;20647;-76
2021/08/23 00:55:15;;;;;;;51.97;25.33;;;17.40;99.90;;;;;;5058876;28;20232;-78
2021/08/23 00:57:43;;;;;;;47.80;25.87;;;17.40;99.90;;;;;;5053894;28;20196;-77
2021/08/23 01:00:11;;;;;;;49.17;24.90;;;17.50;99.90;;;;;;5054716;28;20310;-75
2021/08/23 01:02:46;;;;;;;53.63;27.47;;;17.40;99.90;;;;;;5052826;28;20282;-77
2021/08/23 01:05:16;;;;;;;56.97;25.77;;;17.40;99.90;;;;;;5053003;28;20736;-77
2021/08/23 01:07:49;;;;;;;53.80;25.57;;;17.40;99.90;;;;;;5051919;28;20212;-78
2021/08/23 01:10:20;;;;;;;51.67;26.27;;;17.50;99.90;;;;;;5055268;28;20235;-79
2021/08/23 01:12:48;;;;;;;49.60;25.23;;;17.50;99.90;;;;;;5054835;28;20200;-76
2021/08/23 01:15:14;;;;;;;56.23;26.03;;;17.50;99.90;;;;;;5056534;28;20306;-78
2021/08/23 01:17:41;;;;;;;53.53;25.50;;;17.50;99.90;;;;;;5055017;28;20286;-79
2021/08/23 01:20:09;;;;;;;48.30;24.53;;;17.60;99.90;;;;;;5053881;28;20639;-75
2021/08/23 01:22:40;;;;;;;59.90;25.50;;;17.60;99.90;;;;;;5059401;28;20284;-75
2021/08/23 01:25:12;;;;;;;50.37;25.27;;;17.60;99.90;;;;;;5058555;28;20283;-77
2021/08/23 01:27:41;;;;;;;55.53;24.13;;;17.60;99.90;;;;;;5076731;28;20223;-77
2021/08/23 01:30:10;;;;;;;54.90;23.67;;;17.60;99.90;;;;;;5079344;28;20196;-78
2021/08/23 01:32:39;;;;;;;46.37;22.17;;;17.50;99.90;;;;;;5079995;28;20204;-76
2021/08/23 01:35:08;;;;;;;45.67;22.23;;;17.40;99.90;;;;;;5079185;28;20257;-78
2021/08/23 01:37:36;;;;;;;47.40;20.10;;;17.40;99.90;;;;;;5074001;28;20286;-78
2021/08/23 01:40:05;;;;;;;42.73;20.37;;;17.30;99.90;;;;;;5079727;28;20210;-78
2021/08/23 01:42:32;;;;;;;38.27;20.20;;;17.40;99.90;;;;;;5081896;28;20229;-77
2021/08/23 01:45:00;;;;;;;39.73;20.23;;;17.40;99.90;;;;;;5076892;28;20219;-78
2021/08/23 01:47:27;;;;;;;32.30;19.07;;;17.40;99.90;;;;;;5080134;28;20200;-77
2021/08/23 01:49:55;;;;;;;38.90;18.90;;;17.40;99.90;;;;;;5081572;28;20232;-80
2021/08/23 01:52:22;;;;;;;37.67;18.10;;;17.40;99.90;;;;;;5082650;28;20230;-77
2021/08/23 01:54:49;;;;;;;36.10;17.23;;;17.40;99.90;;;;;;5078090;28;20227;-79
2021/08/23 01:57:17;;;;;;;32.90;16.47;;;17.40;99.90;;;;;;5072285;28;20204;-78
2021/08/23 01:59:44;;;;;;;32.13;15.10;;;17.40;99.90;;;;;;5075045;28;20317;-77
2021/08/23 02:02:11;;;;;;;35.77;14.90;;;17.40;99.90;;;;;;5076018;28;20311;-77
2021/08/23 02:04:38;;;;;;;32.03;15.33;;;17.40;99.90;;;;;;5076073;28;20211;-77
2021/08/23 02:07:06;;;;;;;26.50;13.93;;;17.40;99.90;;;;;;5075880;28;20282;-78
2021/08/23 02:09:33;;;;;;;30.77;13.80;;;17.40;99.90;;;;;;5076402;28;20211;-77
2021/08/23 02:12:00;;;;;;;26.13;13.60;;;17.40;99.90;;;;;;5075774;28;20231;-77
2021/08/23 02:14:27;;;;;;;29.83;13.67;;;17.40;99.90;;;;;;5075482;28;20211;-76
2021/08/23 02:16:54;;;;;;;27.97;12.93;;;17.40;99.90;;;;;;5075750;28;20637;-78
2021/08/23 02:19:22;;;;;;;32.07;13.03;;;17.40;99.90;;;;;;5075993;28;20719;-78
2021/08/23 02:21:50;;;;;;;33.70;12.37;;;17.30;99.90;;;;;;5075523;28;20564;-78
2021/08/23 02:24:19;;;;;;;21.17;12.27;;;17.30;99.90;;;;;;5075733;28;20655;-77
2021/08/23 02:26:46;;;;;;;34.20;13.10;;;17.40;99.90;;;;;;5075667;28;20199;-77
2021/08/23 02:29:13;;;;;;;26.57;12.33;;;17.30;99.90;;;;;;5075737;28;20230;-76
2021/08/23 02:31:40;;;;;;;26.37;13.30;;;17.40;99.90;;;;;;5075772;28;20636;-79
2021/08/23 02:34:07;;;;;;;34.67;11.60;;;17.40;99.90;;;;;;5075708;28;20210;-80
2021/08/23 02:36:34;;;;;;;24.93;12.33;;;17.40;99.90;;;;;;5075495;28;20227;-77
2021/08/23 02:39:01;;;;;;;26.47;12.53;;;17.40;99.90;;;;;;5075374;28;20203;-78
2021/08/23 02:41:29;;;;;;;24.63;11.43;;;17.40;99.90;;;;;;5074787;28;20306;-77
2021/08/23 02:43:56;;;;;;;25.23;11.80;;;17.40;99.90;;;;;;5075015;28;20661;-80
2021/08/23 02:46:23;;;;;;;25.00;11.43;;;17.40;99.90;;;;;;5075344;28;20282;-77
2021/08/23 02:48:50;;;;;;;32.63;11.63;;;17.40;99.90;;;;;;5075165;28;20294;-76
2021/08/23 02:51:16;;;;;;;29.27;11.57;;;17.30;99.90;;;;;;5075157;28;20613;-77
2021/08/23 02:53:43;;;;;;;39.57;11.17;;;17.30;99.90;;;;;;5060949;28;20749;-76
2021/08/23 02:56:10;;;;;;;24.57;11.07;;;17.30;99.90;;;;;;5076227;28;20226;-78
2021/08/23 02:58:39;;;;;;;29.83;11.37;;;17.30;99.90;;;;;;5095343;28;20249;-76
2021/08/23 03:01:06;;;;;;;27.90;10.87;;;17.30;99.90;;;;;;5091640;28;20309;-77
2021/08/23 03:03:35;;;;;;;28.50;11.10;;;17.30;99.90;;;;;;5094890;28;20206;-81
2021/08/23 03:06:02;;;;;;;24.57;10.60;;;17.30;99.90;;;;;;5094901;28;20282;-80
2021/08/23 03:08:29;;;;;;;25.60;10.17;;;17.30;99.90;;;;;;5094769;28;20199;-78
2021/08/23 03:11:05;;;;;;;24.43;11.10;;;17.40;99.90;;;;;;5094631;28;20287;-79
2021/08/23 03:13:32;;;;;;;26.47;10.37;;;17.40;99.90;;;;;;5094957;28;20294;-78
2021/08/23 03:16:01;;;;;;;25.23;11.13;;;17.30;99.90;;;;;;5094536;28;20203;-79
2021/08/23 03:18:27;;;;;;;28.10;11.00;;;17.30;99.90;;;;;;5094900;28;20199;-77
2021/08/23 03:20:54;;;;;;;28.83;11.20;;;17.30;99.90;;;;;;5094465;28;22492;-75
2021/08/23 03:23:21;;;;;;;26.37;11.23;;;17.30;99.90;;;;;;5094876;28;20285;-77
2021/08/23 03:25:48;;;;;;;21.83;11.60;;;17.30;99.90;;;;;;5094777;28;20289;-79
2021/08/23 03:28:15;;;;;;;22.57;12.00;;;17.30;99.90;;;;;;5094475;28;20251;-79
2021/08/23 03:30:42;;;;;;;27.83;12.50;;;17.30;99.90;;;;;;5094253;28;20286;-79
2021/08/23 03:33:11;;;;;;;22.87;12.27;;;17.30;99.90;;;;;;5094285;28;20277;-78
2021/08/23 03:35:38;;;;;;;30.37;13.07;;;17.40;99.90;;;;;;5094354;28;20277;-78
2021/08/23 03:38:05;;;;;;;30.10;13.57;;;17.40;99.90;;;;;;5094084;28;20574;-77
2021/08/23 03:40:32;;;;;;;27.97;14.17;;;17.30;99.90;;;;;;5094563;28;20226;-79
2021/08/23 03:42:59;;;;;;;31.23;14.33;;;17.30;99.90;;;;;;5094364;28;20561;-79
2021/08/23 03:45:26;;;;;;;35.37;15.70;;;17.40;99.90;;;;;;5094623;28;20199;-79
2021/08/23 03:47:53;;;;;;;33.30;16.23;;;17.40;99.90;;;;;;5094031;28;20281;-76
2021/08/23 03:50:22;;;;;;;32.17;16.87;;;17.40;99.90;;;;;;5094181;28;20528;-78
2021/08/23 03:52:49;;;;;;;33.57;17.53;;;17.40;99.90;;;;;;5094224;28;20205;-79
2021/08/23 03:55:16;;;;;;;31.33;17.80;;;17.40;99.90;;;;;;5094262;28;20282;-78
2021/08/23 03:57:43;;;;;;;34.17;19.10;;;17.40;99.90;;;;;;5094054;28;20207;-79
2021/08/23 04:00:11;;;;;;;39.93;20.20;;;17.40;99.90;;;;;;5093641;28;20199;-79
2021/08/23 04:02:38;;;;;;;36.60;21.73;;;17.40;99.90;;;;;;5094413;28;20304;-78
2021/08/23 04:05:06;;;;;;;38.03;21.77;;;17.40;99.90;;;;;;5093912;28;20631;-78
2021/08/23 04:07:35;;;;;;;44.60;22.97;;;17.40;99.90;;;;;;5094009;28;20234;-77
2021/08/23 04:10:01;;;;;;;42.47;23.77;;;17.40;99.90;;;;;;5093460;28;20286;-78
2021/08/23 04:12:29;;;;;;;46.03;24.87;;;17.30;99.90;;;;;;5093837;28;20199;-78
2021/08/23 04:14:56;;;;;;;50.53;25.83;;;17.30;99.90;;;;;;5093573;28;20267;-81
2021/08/23 04:17:22;;;;;;;46.87;27.77;;;17.30;99.90;;;;;;5087830;28;20282;-81
2021/08/23 04:19:49;;;;;;;57.27;30.20;;;17.30;99.90;;;;;;5085276;28;20657;-77
2021/08/23 04:22:16;;;;;;;46.77;28.43;;;17.30;99.90;;;;;;5092831;28;20219;-81
2021/08/23 04:24:44;;;;;;;52.80;30.60;;;17.30;99.90;;;;;;5093958;28;20290;-78
2021/08/23 04:27:11;;;;;;;54.17;31.50;;;17.30;99.90;;;;;;5093489;28;20203;-79
2021/08/23 04:29:38;;;;;;;55.27;32.27;;;17.30;99.90;;;;;;5093405;28;20572;-78
2021/08/23 04:32:06;;;;;;;62.23;33.93;;;17.30;99.90;;;;;;5092944;28;20648;-79
2021/08/23 04:34:33;;;;;;;62.10;33.83;;;17.30;99.90;;;;;;5093462;28;20252;-79
2021/08/23 04:37:03;;;;;;;63.90;35.30;;;17.30;99.90;;;;;;5093589;28;20203;-78
2021/08/23 04:39:31;;;;;;;61.77;34.97;;;17.40;99.90;;;;;;5093539;28;20207;-81
2021/08/23 04:41:59;;;;;;;63.07;35.20;;;17.30;99.90;;;;;;5093411;28;20226;-79
2021/08/23 04:44:26;;;;;;;62.47;36.93;;;17.30;99.90;;;;;;5092916;28;20305;-79
2021/08/23 04:46:53;;;;;;;61.97;36.63;;;17.30;99.90;;;;;;5093671;28;20648;-78
2021/08/23 04:49:20;;;;;;;66.67;36.67;;;17.40;99.90;;;;;;5092839;28;20234;-79
2021/08/23 04:51:47;;;;;;;64.73;37.33;;;17.30;99.90;;;;;;5093387;28;20264;-78
2021/08/23 04:54:14;;;;;;;56.57;36.40;;;17.30;99.90;;;;;;5092688;28;20199;-79
2021/08/23 04:56:41;;;;;;;56.57;35.73;;;17.30;99.90;;;;;;5092768;28;20297;-82
2021/08/23 04:59:09;;;;;;;55.27;35.07;;;17.20;99.90;;;;;;5093028;28;20234;-78
2021/08/23 05:01:36;;;;;;;56.03;34.57;;;17.30;99.90;;;;;;5092485;28;20254;-80
2021/08/23 05:04:03;;;;;;;54.30;33.63;;;17.20;99.90;;;;;;5092897;28;20691;-78
2021/08/23 05:06:30;;;;;;;56.63;33.23;;;17.20;99.90;;;;;;5092562;28;20665;-77
2021/08/23 05:08:57;;;;;;;47.23;30.33;;;17.20;99.90;;;;;;5092955;28;20688;-79
2021/08/23 05:11:24;;;;;;;49.83;29.50;;;17.10;99.90;;;;;;5092687;28;20228;-81
2021/08/23 05:13:51;;;;;;;47.10;30.10;;;17.10;99.90;;;;;;5092437;28;20206;-78
2021/08/23 05:16:19;;;;;;;41.70;26.87;;;17.10;99.90;;;;;;5092232;28;20199;-80
2021/08/23 05:18:46;;;;;;;45.80;27.07;;;17.20;99.90;;;;;;5080244;28;20241;-78
2021/08/23 05:21:13;;;;;;;37.87;25.77;;;17.10;99.90;;;;;;5080872;28;20282;-79
2021/08/23 05:23:40;;;;;;;39.83;26.00;;;17.00;99.90;;;;;;5092331;28;20560;-80
2021/08/23 05:26:08;;;;;;;38.73;27.27;;;17.00;99.90;;;;;;5084197;28;20713;-79
2021/08/23 05:28:35;;;;;;;37.33;26.80;;;17.00;99.90;;;;;;5074179;28;20641;-78
2021/08/23 05:31:02;;;;;;;38.23;26.37;;;17.10;99.90;;;;;;5085082;28;20279;-78
2021/08/23 05:33:30;;;;;;;41.27;26.90;;;17.20;99.90;;;;;;5074169;28;20612;-78
2021/08/23 05:35:57;;;;;;;39.87;26.83;;;17.10;99.90;;;;;;5089002;28;20285;-79
2021/08/23 05:38:24;;;;;;;39.03;26.63;;;17.10;99.90;;;;;;5087867;28;20202;-80
2021/08/23 05:40:51;;;;;;;44.60;26.30;;;17.10;99.90;;;;;;5079322;28;21455;-77
2021/08/23 05:43:18;;;;;;;38.50;25.20;;;17.10;99.90;;;;;;5092138;28;20568;-78
2021/08/23 05:45:45;;;;;;;43.07;25.53;;;17.00;99.90;;;;;;5091793;28;20664;-79
2021/08/23 05:48:12;;;;;;;39.13;25.63;;;17.00;99.90;;;;;;5087761;28;20345;-78
2021/08/23 05:50:40;;;;;;;43.00;25.97;;;17.00;99.90;;;;;;5089525;28;20651;-77
2021/08/23 05:53:07;;;;;;;40.93;27.17;;;17.00;99.90;;;;;;5095155;28;20282;-77
2021/08/23 05:55:34;;;;;;;37.90;26.17;;;17.00;99.90;;;;;;5081647;28;20238;-79
2021/08/23 05:58:01;;;;;;;41.70;26.30;;;17.10;99.90;;;;;;5073677;28;20223;-79
2021/08/23 06:00:28;;;;;;;40.03;25.47;;;17.10;99.90;;;;;;5075434;28;20198;-77
2021/08/23 06:02:56;;;;;;;39.77;25.13;;;17.10;99.90;;;;;;5074556;28;20230;-77
2021/08/23 06:05:23;;;;;;;39.53;24.80;;;17.10;99.90;;;;;;5075922;28;20230;-79
2021/08/23 06:07:51;;;;;;;38.57;24.37;;;17.10;99.90;;;;;;5075385;28;20242;-79
2021/08/23 06:10:19;;;;;;;42.23;24.07;;;17.20;99.90;;;;;;5075892;28;20287;-78
2021/08/23 06:12:47;;;;;;;39.50;23.87;;;17.10;99.90;;;;;;5075662;28;20195;-78
2021/08/23 06:15:14;;;;;;;39.80;23.27;;;17.10;99.90;;;;;;5075223;28;20203;-77
2021/08/23 06:17:41;;;;;;;33.73;21.03;;;17.10;99.90;;;;;;5075921;28;20296;-78
2021/08/23 06:20:09;;;;;;;40.80;22.80;;;17.20;99.90;;;;;;5075833;28;20200;-77
2021/08/23 06:22:37;;;;;;;33.60;22.13;;;17.10;99.90;;;;;;5074787;28;20673;-79
2021/08/23 06:25:07;;;;;;;36.13;21.73;;;17.20;99.90;;;;;;5075356;28;20199;-76
2021/08/23 06:27:34;;;;;;;36.53;22.60;;;17.30;99.90;;;;;;5074770;28;20234;-79
2021/08/23 06:30:04;;;;;;;33.77;21.57;;;17.30;99.90;;;;;;5075192;28;20196;-80
2021/08/23 06:32:31;;;;;;;34.07;21.03;;;17.20;99.90;;;;;;5075220;28;20563;-79
2021/08/23 06:34:57;;;;;;;32.57;20.47;;;17.20;99.90;;;;;;5075571;28;20290;-78
2021/08/23 06:37:24;;;;;;;37.57;21.87;;;17.20;99.90;;;;;;5075940;28;20202;-81
2021/08/23 06:39:51;;;;;;;32.13;19.57;;;17.20;99.90;;;;;;5075410;28;20202;-78
2021/08/23 06:42:20;;;;;;;34.93;19.97;;;17.20;99.90;;;;;;5075297;28;20770;-79
2021/08/23 06:44:46;;;;;;;28.77;18.40;;;17.20;99.90;;;;;;5074941;28;20298;-79
2021/08/23 06:47:16;;;;;;;32.13;19.87;;;17.20;99.90;;;;;;5075374;28;20284;-78
2021/08/23 06:49:43;;;;;;;33.83;21.13;;;17.10;99.90;;;;;;5075256;28;20675;-81
2021/08/23 06:52:10;;;;;;;33.63;20.70;;;17.10;99.90;;;;;;5075652;28;20202;-81
2021/08/23 06:54:37;;;;;;;37.33;21.20;;;17.20;99.90;;;;;;5075457;28;20195;-80
2021/08/23 06:57:04;;;;;;;32.53;18.77;;;17.10;99.90;;;;;;5075277;28;20238;-78
2021/08/23 06:59:33;;;;;;;31.67;19.13;;;17.00;99.90;;;;;;5075219;28;20298;-80
2021/08/23 07:02:00;;;;;;;37.03;20.50;;;17.00;99.90;;;;;;5075211;28;20292;-79
2021/08/23 07:04:27;;;;;;;37.47;21.50;;;17.00;99.90;;;;;;5075207;28;20191;-79
2021/08/23 07:06:53;;;;;;;35.60;21.67;;;17.10;99.90;;;;;;5075321;28;20245;-79
2021/08/23 07:09:20;;;;;;;36.43;21.23;;;17.00;99.90;;;;;;5075020;28;20279;-78
2021/08/23 07:11:47;;;;;;;41.80;22.73;;;16.90;99.90;;;;;;5077138;28;20290;-77
2021/08/23 07:14:14;;;;;;;42.73;24.97;;;16.80;99.90;;;;;;5086923;28;20576;-77
2021/08/23 07:16:42;;;;;;;40.03;23.43;;;16.90;99.90;;;;;;5081662;28;20286;-77
2021/08/23 07:19:09;;;;;;;41.87;24.73;;;16.90;99.90;;;;;;5079336;28;20281;-78
2021/08/23 07:21:36;;;;;;;41.43;23.47;;;16.90;99.90;;;;;;5081927;28;20236;-80
2021/08/23 07:24:03;;;;;;;44.20;25.50;;;16.90;99.90;;;;;;5091701;28;20697;-79
2021/08/23 07:26:30;;;;;;;44.47;26.53;;;17.00;99.90;;;;;;5090767;28;20748;-78
2021/08/23 07:28:57;;;;;;;46.17;25.93;;;17.00;99.90;;;;;;5089571;28;20276;-78
2021/08/23 07:31:24;;;;;;;44.33;25.60;;;17.00;99.90;;;;;;5075119;28;20239;-81
2021/08/23 07:33:53;;;;;;;52.67;26.47;;;16.90;99.90;;;;;;5080704;28;20285;-78
2021/08/23 07:36:20;;;;;;;49.43;27.90;;;16.90;99.90;;;;;;5083189;28;20257;-81
2021/08/23 07:38:47;;;;;;;50.83;27.57;;;16.90;99.90;;;;;;5088849;28;20231;-77
2021/08/23 07:41:14;;;;;;;52.57;26.90;;;17.00;99.90;;;;;;5085810;28;20297;-82
2021/08/23 07:43:41;;;;;;;49.83;28.53;;;17.10;99.90;;;;;;5094357;28;20750;-80
2021/08/23 07:46:10;;;;;;;48.67;28.07;;;17.00;99.90;;;;;;5094373;28;20226;-78
2021/08/23 07:48:37;;;;;;;54.53;28.77;;;16.90;99.90;;;;;;5082886;28;20592;-78
2021/08/23 07:51:05;;;;;;;50.10;28.20;;;16.90;99.90;;;;;;5094736;28;20219;-77
2021/08/23 07:53:32;;;;;;;49.73;28.13;;;16.90;99.90;;;;;;5094194;28;20669;-82
2021/08/23 07:55:59;;;;;;;53.83;27.77;;;16.90;99.90;;;;;;5094159;28;20583;-78
2021/08/23 07:58:26;;;;;;;42.90;24.90;;;16.90;99.90;;;;;;5093928;28;20285;-79
2021/08/23 08:00:53;;;;;;;44.80;25.17;;;17.00;99.90;;;;;;5094236;28;20213;-79
2021/08/23 08:03:20;;;;;;;42.93;25.57;;;17.10;99.90;;;;;;5093762;28;20301;-79
2021/08/23 08:05:47;;;;;;;36.23;24.07;;;17.20;99.90;;;;;;5074767;28;20234;-79
2021/08/23 08:08:15;;;;;;;38.70;23.63;;;17.30;99.90;;;;;;5082573;28;20284;-79
2021/08/23 08:10:42;;;;;;;33.53;21.33;;;17.50;99.90;;;;;;5084288;28;20657;-77
2021/08/23 08:13:09;;;;;;;30.50;20.63;;;18.00;99.90;;;;;;5063543;28;20196;-76
2021/08/23 08:15:36;;;;;;;29.27;18.80;;;18.30;99.90;;;;;;5070556;28;20385;-77
2021/08/23 08:18:03;;;;;;;26.30;18.57;;;18.70;99.90;;;;;;5081494;28;20272;-80
2021/08/23 08:20:31;;;;;;;24.00;17.40;;;19.10;99.90;;;;;;5070701;28;20204;-81
2021/08/23 08:22:57;;;;;;;24.97;17.20;;;19.20;99.90;;;;;;5067859;28;20252;-80
2021/08/23 08:25:26;;;;;;;23.83;16.83;;;19.10;99.90;;;;;;5065306;28;20228;-77
2021/08/23 08:27:53;;;;;;;25.60;16.43;;;18.80;99.90;;;;;;5063029;28;20256;-78
2021/08/23 08:30:20;;;;;;;28.30;17.10;;;18.30;99.90;;;;;;5065962;28;20211;-77
2021/08/23 08:32:47;;;;;;;24.57;16.93;;;18.20;99.90;;;;;;5082161;28;21402;-79
2021/08/23 08:35:14;;;;;;;24.40;16.37;;;18.30;99.90;;;;;;5070819;28;20287;-81
2021/08/23 08:37:42;;;;;;;21.67;15.63;;;18.40;99.90;;;;;;5062131;28;20239;-79
2021/08/23 08:40:11;;;;;;;24.37;16.50;;;18.30;99.90;;;;;;5066616;28;20219;-77
2021/08/23 08:42:40;;;;;;;23.43;16.53;;;18.30;99.90;;;;;;5059902;28;20228;-81
2021/08/23 08:45:07;;;;;;;23.47;16.40;;;18.10;99.90;;;;;;5061093;28;20199;-81
2021/08/23 08:47:36;;;;;;;26.47;16.50;;;18.10;99.90;;;;;;5061291;28;20282;-80
2021/08/23 08:50:04;;;;;;;19.70;15.23;;;18.10;99.90;;;;;;5055783;28;20212;-78
2021/08/23 08:52:32;;;;;;;20.43;15.37;;;18.20;99.90;;;;;;5065665;28;20257;-79
2021/08/23 08:54:59;;;;;;;22.80;15.87;;;18.30;99.90;;;;;;5056377;28;20279;-80
2021/08/23 08:57:26;;;;;;;21.93;15.17;;;18.70;99.90;;;;;;5060562;28;20228;-80
2021/08/23 08:59:54;;;;;;;24.57;16.30;;;18.60;99.90;;;;;;5067899;28;20235;-78
2021/08/23 09:02:21;;;;;;;19.67;14.63;;;18.50;99.90;;;;;;5067976;28;20760;-79
2021/08/23 09:04:48;;;;;;;16.90;13.80;;;18.60;99.90;;;;;;5056582;28;20661;-78
2021/08/23 09:07:15;;;;;;;19.93;14.53;;;18.60;99.90;;;;;;5060311;28;20295;-79
2021/08/23 09:09:42;;;;;;;17.17;13.93;;;18.60;99.90;;;;;;5059232;28;20684;-80
2021/08/23 09:12:11;;;;;;;17.10;13.23;;;18.70;99.90;;;;;;5072259;28;20245;-78
2021/08/23 09:14:48;;;;;;;18.77;13.57;;;18.80;99.90;;;;;;5056378;28;20303;-77
2021/08/23 09:17:16;;;;;;;16.30;13.03;;;18.80;99.90;;;;;;5068585;28;20292;-77
2021/08/23 09:19:43;;;;;;;15.80;12.37;;;18.60;99.90;;;;;;5064778;28;20200;-78
2021/08/23 09:22:15;;;;;;;20.90;14.43;;;18.50;99.90;;;;;;5080934;28;20218;-76
2021/08/23 09:24:43;;;;;;;17.10;13.27;;;18.60;99.90;;;;;;5076337;28;20238;-79
2021/08/23 09:27:11;;;;;;;19.10;13.87;;;18.40;99.90;;;;;;5053645;28;20665;-77
2021/08/23 09:29:59;;;;;;;17.23;13.50;;;18.20;99.90;;;;;;5081110;28;20278;-79
2021/08/23 09:32:29;;;;;;;18.93;13.47;;;18.20;99.90;;;;;;5081410;28;20226;-78
2021/08/23 09:34:57;;;;;;;15.97;11.73;;;18.50;99.90;;;;;;5083397;28;20290;-77
2021/08/23 09:37:26;;;;;;;15.93;12.90;;;18.60;99.90;;;;;;5079909;28;20675;-78
2021/08/23 09:39:54;;;;;;;17.70;12.27;;;18.60;99.90;;;;;;5079038;28;20676;-78
2021/08/23 09:42:22;;;;;;;14.37;11.27;;;18.70;99.90;;;;;;5074027;28;20195;-79
2021/08/23 09:44:50;;;;;;;15.43;11.20;;;18.80;99.90;;;;;;5084679;28;20214;-78
2021/08/23 09:47:18;;;;;;;15.77;11.03;;;18.80;99.90;;;;;;5083326;28;20283;-80
2021/08/23 09:49:47;;;;;;;16.37;11.07;;;19.00;99.90;;;;;;5074733;28;20298;-77
2021/08/23 09:52:22;;;;;;;17.53;11.03;;;19.10;99.90;;;;;;5077945;28;20287;-76
2021/08/23 09:55:01;;;;;;;15.80;10.73;;;19.20;99.90;;;;;;5079711;28;20199;-78
2021/08/23 09:57:29;;;;;;;14.43;10.93;;;19.00;99.90;;;;;;5081718;28;20211;-80
2021/08/23 09:59:57;;;;;;;12.40;9.80;;;18.90;99.90;;;;;;5080156;28;20203;-77
2021/08/23 10:02:27;;;;;;;12.63;9.93;;;19.00;99.90;;;;;;5076008;28;20226;-76
2021/08/23 10:04:58;;;;;;;14.20;9.13;;;19.20;99.90;;;;;;5075605;28;20222;-77
2021/08/23 10:07:27;;;;;;;13.67;9.60;;;19.20;99.90;;;;;;5080661;28;20732;-77
2021/08/23 10:09:55;;;;;;;17.80;8.07;;;19.30;99.90;;;;;;5081836;28;20286;-79
2021/08/23 10:12:22;;;;;;;9.60;7.63;;;19.40;99.90;;;;;;5078343;28;20198;-77
2021/08/23 10:14:49;;;;;;;9.37;7.00;;;19.50;99.90;;;;;;5072785;28;20653;-78
2021/08/23 10:17:16;;;;;;;8.90;6.53;;;19.70;99.90;;;;;;5083473;28;20203;-77
2021/08/23 10:19:44;;;;;;;13.70;7.13;;;20.20;99.90;;;;;;5078353;28;20242;-77
2021/08/23 10:22:14;;;;;;;8.37;6.47;;;20.30;99.90;;;;;;5090667;28;20202;-77
2021/08/23 10:24:42;;;;;;;9.67;6.50;;;20.30;99.90;;;;;;5095056;28;20207;-79
2021/08/23 10:27:09;;;;;;;10.67;6.57;;;20.40;99.90;;;;;;5085871;28;20569;-80
2021/08/23 10:29:41;;;;;;;8.03;6.47;;;20.10;99.90;;;;;;5091621;28;20234;-81
2021/08/23 10:32:10;;;;;;;9.50;6.57;;;19.90;99.90;;;;;;5083745;28;20563;-79
2021/08/23 10:34:38;;;;;;;11.83;6.27;;;19.80;99.90;;;;;;5087990;28;20203;-78
2021/08/23 10:37:18;;;;;;;8.07;6.00;;;19.60;99.90;;;;;;5094986;28;20199;-79
2021/08/23 10:39:45;;;;;;;10.37;6.87;;;19.50;99.90;;;;;;5094933;28;20233;-78
2021/08/23 10:42:13;;;;;;;9.70;5.67;;;19.60;99.90;;;;;;5079419;28;20207;-79
2021/08/23 10:44:41;;;;;;;10.50;6.13;;;19.90;99.90;;;;;;5071039;28;20223;-79
2021/08/23 10:47:10;;;;;;;9.83;5.67;;;20.00;99.90;;;;;;5056945;28;20266;-80
2021/08/23 10:49:46;;;;;;;8.17;6.00;;;20.10;99.90;;;;;;5064157;28;20204;-81
2021/08/23 10:52:14;;;;;;;8.80;5.63;;;20.10;99.90;;;;;;5071057;28;20198;-78
2021/08/23 10:54:44;;;;;;;8.17;5.83;;;20.00;99.90;;;;;;5088251;28;20200;-79
2021/08/23 10:57:12;;;;;;;8.47;6.27;;;19.80;99.90;;;;;;5076473;28;20198;-78
2021/08/23 10:59:44;;;;;;;8.67;6.23;;;19.70;99.90;;;;;;5063898;28;20192;-79
2021/08/23 11:02:13;;;;;;;8.40;6.60;;;19.40;99.90;;;;;;5066370;28;20287;-79
2021/08/23 11:04:42;;;;;;;12.87;6.93;;;19.30;99.90;;;;;;5058871;28;20252;-78
2021/08/23 11:07:11;;;;;;;10.77;6.60;;;19.00;99.90;;;;;;5070135;28;20207;-79
2021/08/23 11:09:40;;;;;;;10.87;6.30;;;19.10;99.90;;;;;;5067052;28;20293;-79
2021/08/23 11:12:11;;;;;;;9.03;6.67;;;19.10;99.90;;;;;;5067153;28;20215;-79
2021/08/23 11:14:49;;;;;;;10.47;6.80;;;19.10;99.90;;;;;;5073154;28;20222;-78
2021/08/23 11:17:27;;;;;;;12.37;7.00;;;19.00;99.90;;;;;;5090510;28;20284;-79
2021/08/23 11:19:55;;;;;;;11.40;6.57;;;19.10;99.90;;;;;;5077392;28;20278;-79
2021/08/23 11:22:23;;;;;;;12.97;6.47;;;19.10;99.90;;;;;;5081376;28;20235;-79
2021/08/23 11:24:50;;;;;;;9.90;6.33;;;19.10;99.90;;;;;;5066583;28;20226;-78
2021/08/23 11:27:18;;;;;;;15.73;6.60;;;19.30;99.90;;;;;;5064808;28;20682;-78
2021/08/23 11:29:53;;;;;;;11.50;6.67;;;19.50;99.90;;;;;;5060428;28;20274;-78
2021/08/23 11:32:25;;;;;;;9.90;6.40;;;19.80;99.90;;;;;;5074358;28;20217;-78
2021/08/23 11:34:54;;;;;;;7.40;6.20;;;20.10;99.90;;;;;;5066816;28;20210;-80
2021/08/23 11:37:24;;;;;;;8.20;5.70;;;20.60;99.90;;;;;;5059789;28;20203;-79
2021/08/23 11:40:02;;;;;;;9.57;6.30;;;20.70;99.90;;;;;;5068284;28;20239;-78
2021/08/23 11:42:30;;;;;;;13.17;6.80;;;20.80;99.90;;;;;;5080185;28;20275;-77
2021/08/23 11:44:58;;;;;;;10.37;6.47;;;20.50;99.90;;;;;;5071675;28;20400;-80
2021/08/23 11:47:33;;;;;;;10.03;6.03;;;20.50;99.90;;;;;;5077568;28;20673;-80
2021/08/23 11:50:01;;;;;;;8.50;5.73;;;20.60;99.90;;;;;;5077346;28;20209;-82
2021/08/23 11:52:28;;;;;;;11.30;6.03;;;20.10;99.90;;;;;;5075633;28;20290;-79
2021/08/23 11:54:57;;;;;;;10.00;5.77;;;20.10;99.90;;;;;;5072322;28;20227;-76
2021/08/23 11:57:26;;;;;;;8.70;5.27;;;19.80;99.90;;;;;;5088674;28;20209;-76
2021/08/23 12:00:00;;;;;;;10.70;5.30;;;19.60;99.90;;;;;;5091802;28;20256;-76
2021/08/23 12:02:31;;;;;;;8.03;5.37;;;19.50;99.90;;;;;;5067630;28;20725;-76
2021/08/23 12:05:12;;;;;;;7.93;5.27;;;19.70;99.90;;;;;;5077850;28;20365;-77
2021/08/23 12:07:48;;;;;;;9.30;5.10;;;19.90;99.90;;;;;;5085651;28;20195;-77
2021/08/23 12:10:25;;;;;;;8.17;4.97;;;20.30;99.90;;;;;;5090307;28;20621;-80
2021/08/23 12:12:53;;;;;;;7.90;5.60;;;20.30;99.90;;;;;;5091768;28;20210;-77
2021/08/23 12:15:25;;;;;;;6.70;4.87;;;20.40;99.90;;;;;;5090224;28;20199;-76
2021/08/23 12:17:52;;;;;;;11.07;5.20;;;20.50;99.90;;;;;;5092244;28;20649;-77
2021/08/23 12:20:20;;;;;;;9.03;5.13;;;20.60;99.90;;;;;;5079949;28;20203;-76
2021/08/23 12:22:47;;;;;;;9.20;5.10;;;20.60;99.90;;;;;;5087431;28;20649;-76
2021/08/23 12:25:24;;;;;;;8.47;4.80;;;20.60;99.90;;;;;;5079955;28;20224;-77
2021/08/23 12:27:51;;;;;;;8.43;5.10;;;20.80;99.90;;;;;;5077523;28;20277;-78
2021/08/23 12:30:27;;;;;;;11.20;5.00;;;20.70;99.90;;;;;;5079963;28;20668;-78
2021/08/23 12:32:54;;;;;;;12.10;5.40;;;20.40;99.90;;;;;;5072486;28;20212;-78
2021/08/23 12:35:26;;;;;;;7.20;4.60;;;20.40;99.90;;;;;;5078070;28;20235;-79